Time,TemperatureF,DewpointF,PressureIn,WindDirection,WindDirectionDegrees,WindSpeedMPH,WindSpeedGustMPH,Humidity,HourlyPrecipIn,Conditions,Clouds,dailyrainin,SoftwareType,DateUTC
2013-08-24 00:03:00,56.6,47.7,29.93,WNW,296,1.0,2.0,72,0.00,,,0.00,Wunderground v.1.15,2013-08-24 07:03:00,
2013-08-24 00:09:00,56.3,47.8,29.93,WNW,285,2.0,3.0,73,0.00,,,0.00,Wunderground v.1.15,2013-08-24 07:09:00,
2013-08-24 00:14:00,56.2,47.3,29.94,West,278,3.0,3.0,72,0.00,,,0.00,Wunderground v.1.15,2013-08-24 07:14:00,
2013-08-24 00:20:00,56.4,47.9,29.93,WNW,287,3.0,3.0,73,0.00,,,0.00,Wunderground v.1.15,2013-08-24 07:20:00,
2013-08-24 00:26:00,56.2,47.7,29.94,WNW,287,2.0,2.0,73,0.00,,,0.00,Wunderground v.1.15,2013-08-24 07:26:00,
2013-08-24 00:31:00,56.4,47.9,29.93,WNW,285,2.0,4.0,73,0.00,,,0.00,Wunderground v.1.15,2013-08-24 07:31:00,
2013-08-24 00:36:00,56.4,47.9,29.94,WSW,258,2.0,4.0,73,0.00,,,0.00,Wunderground v.1.15,2013-08-24 07:36:00,
2013-08-24 00:41:00,56.1,47.6,29.94,West,267,1.0,4.0,73,0.00,,,0.00,Wunderground v.1.15,2013-08-24 07:41:00,
2013-08-24 00:47:00,55.7,47.5,29.94,WNW,294,0.0,3.0,74,0.00,,,0.00,Wunderground v.1.15,2013-08-24 07:47:00,
2013-08-24 00:52:00,55.8,47.6,29.94,WNW,287,1.0,3.0,74,0.00,,,0.00,Wunderground v.1.15,2013-08-24 07:52:00,
2013-08-24 00:58:00,55.9,47.7,29.94,West,278,2.0,2.0,74,0.00,,,0.00,Wunderground v.1.15,2013-08-24 07:58:00,
2013-08-24 01:04:00,56.1,47.9,29.94,West,273,1.0,3.0,74,0.00,,,0.00,Wunderground v.1.15,2013-08-24 08:04:00,
2013-08-24 01:09:00,56.1,47.9,29.94,West,259,1.0,3.0,74,0.00,,,0.00,Wunderground v.1.15,2013-08-24 08:09:00,
2013-08-24 01:14:00,55.8,47.6,29.93,WSW,258,1.0,3.0,74,0.00,,,0.00,Wunderground v.1.15,2013-08-24 08:14:00,
2013-08-24 01:20:00,55.5,47.3,29.93,WSW,258,0.0,3.0,74,0.00,,,0.00,Wunderground v.1.15,2013-08-24 08:20:00,
2013-08-24 01:25:00,55.4,48.0,29.93,West,259,0.0,3.0,76,0.00,,,0.00,Wunderground v.1.15,2013-08-24 08:25:00,
2013-08-24 01:31:00,55.5,47.7,29.93,SE,146,0.0,3.0,75,0.00,,,0.00,Wunderground v.1.15,2013-08-24 08:31:00,
2013-08-24 01:36:00,55.3,47.2,29.93,SSE,156,1.0,3.0,74,0.00,,,0.00,Wunderground v.1.15,2013-08-24 08:36:00,
2013-08-24 01:41:00,55.0,47.0,29.71,SSE,149,0.0,0.0,74,0.00,,,0.00,weatherlink.com 1.10,2013-08-24 08:41:00,
2013-08-24 01:47:00,55.2,47.1,29.93,SSW,201,1.0,3.0,74,0.00,,,0.00,Wunderground v.1.15,2013-08-24 08:47:00,
2013-08-24 01:52:00,55.2,47.1,29.93,SSW,201,1.0,3.0,74,0.00,,,0.00,Wunderground v.1.15,2013-08-24 08:52:00,
2013-08-24 01:58:00,55.1,47.0,29.93,SSW,201,0.0,3.0,74,0.00,,,0.00,Wunderground v.1.15,2013-08-24 08:58:00,
2013-08-24 02:03:00,55.1,47.0,29.94,SSW,201,0.0,3.0,74,0.00,,,0.00,Wunderground v.1.15,2013-08-24 09:03:00,
2013-08-24 02:09:00,54.9,46.8,29.94,SSW,201,0.0,3.0,74,0.00,,,0.00,Wunderground v.1.15,2013-08-24 09:09:00,
2013-08-24 02:15:00,54.7,46.6,29.94,SSW,201,0.0,3.0,74,0.00,,,0.00,Wunderground v.1.15,2013-08-24 09:15:00,
2013-08-24 02:20:00,54.7,46.9,29.94,SSW,201,0.0,3.0,75,0.00,,,0.00,Wunderground v.1.15,2013-08-24 09:20:00,
2013-08-24 02:26:00,54.6,46.8,29.94,SSW,201,0.0,3.0,75,0.00,,,0.00,Wunderground v.1.15,2013-08-24 09:26:00,
2013-08-24 02:31:00,54.7,46.9,29.94,SSW,201,0.0,3.0,75,0.00,,,0.00,Wunderground v.1.15,2013-08-24 09:31:00,
2013-08-24 02:36:00,54.7,46.6,29.94,SSW,201,0.0,3.0,74,0.00,,,0.00,Wunderground v.1.15,2013-08-24 09:36:00,
2013-08-24 02:41:00,54.7,46.9,29.93,SSW,201,0.0,3.0,75,0.00,,,0.00,Wunderground v.1.15,2013-08-24 09:41:00,
2013-08-24 02:47:00,54.6,46.8,29.94,SW,214,0.0,3.0,75,0.00,,,0.00,Wunderground v.1.15,2013-08-24 09:47:00,
2013-08-24 02:53:00,54.4,46.6,29.93,SW,214,1.0,3.0,75,0.00,,,0.00,Wunderground v.1.15,2013-08-24 09:53:00,
2013-08-24 02:58:00,54.2,46.4,29.94,SW,214,0.0,3.0,75,0.00,,,0.00,Wunderground v.1.15,2013-08-24 09:58:00,
2013-08-24 03:04:00,53.9,46.5,29.94,SW,214,0.0,3.0,76,0.00,,,0.00,Wunderground v.1.15,2013-08-24 10:04:00,
2013-08-24 03:10:00,53.6,46.6,29.94,SW,214,0.0,3.0,77,0.00,,,0.00,Wunderground v.1.15,2013-08-24 10:10:00,
2013-08-24 03:15:00,53.2,46.5,29.93,SW,214,0.0,3.0,78,0.00,,,0.00,Wunderground v.1.15,2013-08-24 10:15:00,
2013-08-24 03:20:00,52.9,46.2,29.93,SW,214,0.0,3.0,78,0.00,,,0.00,Wunderground v.1.15,2013-08-24 10:20:00,
2013-08-24 03:26:00,52.6,45.9,29.94,East,98,0.0,3.0,78,0.00,,,0.00,Wunderground v.1.15,2013-08-24 10:26:00,
2013-08-24 03:31:00,52.0,45.4,29.94,East,98,1.0,3.0,78,0.00,,,0.00,Wunderground v.1.15,2013-08-24 10:31:00,
2013-08-24 03:37:00,51.1,45.1,29.94,ESE,120,1.0,3.0,80,0.00,,,0.00,Wunderground v.1.15,2013-08-24 10:37:00,
2013-08-24 03:43:00,51.2,46.2,29.94,SE,141,1.0,3.0,83,0.00,,,0.00,Wunderground v.1.15,2013-08-24 10:43:00,
2013-08-24 03:48:00,50.8,44.9,29.93,ESE,108,2.0,2.0,80,0.00,,,0.00,Wunderground v.1.15,2013-08-24 10:48:00,
2013-08-24 03:54:00,50.1,44.8,29.93,SE,145,1.0,3.0,82,0.00,,,0.00,Wunderground v.1.15,2013-08-24 10:54:00,
2013-08-24 03:59:00,49.7,44.4,29.93,SSE,149,1.0,3.0,82,0.00,,,0.00,Wunderground v.1.15,2013-08-24 10:59:00,
2013-08-24 04:05:00,49.3,45.0,29.93,SE,143,2.0,3.0,85,0.00,,,0.00,Wunderground v.1.15,2013-08-24 11:05:00,
2013-08-24 04:11:00,49.4,44.8,29.93,SE,132,2.0,3.0,84,0.00,,,0.00,Wunderground v.1.15,2013-08-24 11:11:00,
2013-08-24 04:16:00,49.4,44.8,29.93,SE,141,2.0,3.0,84,0.00,,,0.00,Wunderground v.1.15,2013-08-24 11:16:00,
2013-08-24 04:22:00,49.4,45.1,29.92,SE,127,1.0,3.0,85,0.00,,,0.00,Wunderground v.1.15,2013-08-24 11:22:00,
2013-08-24 04:27:00,49.3,45.0,29.93,SE,129,1.0,3.0,85,0.00,,,0.00,Wunderground v.1.15,2013-08-24 11:27:00,
2013-08-24 04:33:00,49.4,45.1,29.92,SSE,150,0.0,3.0,85,0.00,,,0.00,Wunderground v.1.15,2013-08-24 11:33:00,
2013-08-24 04:39:00,49.3,45.0,29.92,SE,136,1.0,3.0,85,0.00,,,0.00,Wunderground v.1.15,2013-08-24 11:39:00,
2013-08-24 04:44:00,49.2,44.6,29.92,ESE,121,1.0,3.0,84,0.00,,,0.00,Wunderground v.1.15,2013-08-24 11:44:00,
2013-08-24 04:50:00,49.3,45.0,29.92,ESE,123,1.0,3.0,85,0.00,,,0.00,Wunderground v.1.15,2013-08-24 11:50:00,
2013-08-24 04:56:00,49.2,44.6,29.92,ESE,110,1.0,3.0,84,0.00,,,0.00,Wunderground v.1.15,2013-08-24 11:56:00,
2013-08-24 05:01:00,49.1,44.5,29.92,ESE,110,0.0,3.0,84,0.00,,,0.00,Wunderground v.1.15,2013-08-24 12:01:00,
2013-08-24 05:07:00,48.9,44.6,29.92,ESE,110,0.0,3.0,85,0.00,,,0.00,Wunderground v.1.15,2013-08-24 12:07:00,
2013-08-24 05:12:00,52.9,47.0,29.70,South,169,0.0,0.0,79,0.00,,,0.00,weatherlink.com 1.10,2013-08-24 12:12:00,
2013-08-24 05:17:00,48.5,43.6,29.92,ESE,110,1.0,3.0,83,0.00,,,0.00,Wunderground v.1.15,2013-08-24 12:17:00,
2013-08-24 05:23:00,48.3,44.0,29.92,SE,143,1.0,3.0,85,0.00,,,0.00,Wunderground v.1.15,2013-08-24 12:23:00,
2013-08-24 05:28:00,48.1,43.5,29.92,ESE,118,1.0,3.0,84,0.00,,,0.00,Wunderground v.1.15,2013-08-24 12:28:00,
2013-08-24 05:34:00,48.0,43.7,29.92,SE,131,1.0,3.0,85,0.00,,,0.00,Wunderground v.1.15,2013-08-24 12:34:00,
2013-08-24 05:39:00,48.3,44.3,29.92,SE,146,1.0,3.0,86,0.00,,,0.00,Wunderground v.1.15,2013-08-24 12:39:00,
2013-08-24 05:44:00,48.2,43.6,29.92,SE,142,1.0,3.0,84,0.00,,,0.00,Wunderground v.1.15,2013-08-24 12:44:00,
2013-08-24 05:50:00,47.7,43.4,29.92,SE,139,0.0,3.0,85,0.00,,,0.00,Wunderground v.1.15,2013-08-24 12:50:00,
2013-08-24 05:56:00,47.8,43.8,29.92,ESE,114,1.0,3.0,86,0.00,,,0.00,Wunderground v.1.15,2013-08-24 12:56:00,
2013-08-24 06:01:00,47.7,43.4,29.92,SE,136,2.0,3.0,85,0.00,,,0.00,Wunderground v.1.15,2013-08-24 13:01:00,
2013-08-24 06:07:00,47.9,43.3,29.92,ESE,111,2.0,3.0,84,0.00,,,0.00,Wunderground v.1.15,2013-08-24 13:07:00,
2013-08-24 06:13:00,48.0,43.4,29.92,SE,124,2.0,3.0,84,0.00,,,0.00,Wunderground v.1.15,2013-08-24 13:13:00,
2013-08-24 06:18:00,48.2,44.2,29.92,SE,129,1.0,3.0,86,0.00,,,0.00,Wunderground v.1.15,2013-08-24 13:18:00,
2013-08-24 06:23:00,48.1,43.2,29.92,ESE,102,1.0,3.0,83,0.00,,,0.00,Wunderground v.1.15,2013-08-24 13:23:00,
2013-08-24 06:29:00,48.1,43.2,29.92,East,97,1.0,3.0,83,0.00,,,0.00,Wunderground v.1.15,2013-08-24 13:29:00,
2013-08-24 06:34:00,48.1,43.2,29.92,East,97,1.0,3.0,83,0.00,,,0.00,Wunderground v.1.15,2013-08-24 13:34:00,
2013-08-24 06:40:00,48.2,43.3,29.92,ESE,115,0.0,3.0,83,0.00,,,0.00,Wunderground v.1.15,2013-08-24 13:40:00,
2013-08-24 06:45:00,48.6,43.4,29.92,SE,124,0.0,3.0,82,0.00,,,0.00,Wunderground v.1.15,2013-08-24 13:45:00,
2013-08-24 06:50:00,49.1,43.5,29.92,ESE,122,0.0,3.0,81,0.00,,,0.00,Wunderground v.1.15,2013-08-24 13:50:00,
2013-08-24 06:56:00,50.0,44.4,29.92,ESE,113,0.0,3.0,81,0.00,,,0.00,Wunderground v.1.15,2013-08-24 13:56:00,
2013-08-24 07:01:00,50.0,43.4,29.93,ESE,104,0.0,3.0,78,0.00,,,0.00,Wunderground v.1.15,2013-08-24 14:01:00,
2013-08-24 07:07:00,50.1,43.8,29.93,ESE,108,0.0,3.0,79,0.00,,,0.00,Wunderground v.1.15,2013-08-24 14:07:00,
2013-08-24 07:13:00,50.5,44.6,29.93,ESE,120,0.0,3.0,80,0.00,,,0.00,Wunderground v.1.15,2013-08-24 14:13:00,
2013-08-24 07:18:00,50.8,44.5,29.93,ESE,120,0.0,3.0,79,0.00,,,0.00,Wunderground v.1.15,2013-08-24 14:18:00,
2013-08-24 07:23:00,51.3,44.7,29.93,ESE,120,0.0,3.0,78,0.00,,,0.00,Wunderground v.1.15,2013-08-24 14:23:00,
2013-08-24 07:29:00,51.2,43.9,29.93,ESE,118,0.0,3.0,76,0.00,,,0.00,Wunderground v.1.15,2013-08-24 14:29:00,
2013-08-24 07:35:00,51.9,44.2,29.93,ESE,105,0.0,3.0,75,0.00,,,0.00,Wunderground v.1.15,2013-08-24 14:35:00,
2013-08-24 07:40:00,52.7,44.3,29.93,East,101,1.0,3.0,73,0.00,,,0.00,Wunderground v.1.15,2013-08-24 14:40:00,
2013-08-24 07:46:00,53.4,44.2,29.93,ESE,120,1.0,3.0,71,0.00,,,0.00,Wunderground v.1.15,2013-08-24 14:46:00,
2013-08-24 07:51:00,54.1,44.9,29.93,ESE,108,1.0,3.0,71,0.00,,,0.00,Wunderground v.1.15,2013-08-24 14:51:00,
2013-08-24 07:57:00,55.2,44.8,29.92,SE,140,1.0,3.0,68,0.00,,,0.00,Wunderground v.1.15,2013-08-24 14:57:00,
2013-08-24 08:02:00,56.5,45.3,29.93,ESE,123,1.0,3.0,66,0.00,,,0.00,Wunderground v.1.15,2013-08-24 15:02:00,
2013-08-24 08:08:00,57.9,46.6,29.93,East,86,0.0,3.0,66,0.00,,,0.00,Wunderground v.1.15,2013-08-24 15:08:00,
2013-08-24 08:13:00,59.6,47.4,29.93,East,86,0.0,3.0,64,0.00,,,0.00,Wunderground v.1.15,2013-08-24 15:13:00,
2013-08-24 08:19:00,60.9,47.4,29.93,SE,124,0.0,3.0,61,0.00,,,0.00,Wunderground v.1.15,2013-08-24 15:19:00,
2013-08-24 08:24:00,61.2,47.2,29.93,WSW,253,0.0,3.0,60,0.00,,,0.00,Wunderground v.1.15,2013-08-24 15:24:00,
2013-08-24 08:30:00,61.9,47.9,29.93,NNE,14,0.0,3.0,60,0.00,,,0.00,Wunderground v.1.15,2013-08-24 15:30:00,
2013-08-24 08:36:00,62.0,47.5,29.93,NW,317,0.0,3.0,59,0.00,,,0.00,Wunderground v.1.15,2013-08-24 15:36:00,
2013-08-24 08:42:00,61.7,46.8,29.93,NW,325,1.0,3.0,58,0.00,,,0.00,Wunderground v.1.15,2013-08-24 15:42:00,
2013-08-24 08:47:00,61.9,46.0,29.92,West,269,0.0,3.0,56,0.00,,,0.00,Wunderground v.1.15,2013-08-24 15:47:00,
2013-08-24 08:53:00,62.3,45.9,29.92,NNE,30,0.0,3.0,55,0.00,,,0.00,Wunderground v.1.15,2013-08-24 15:53:00,
2013-08-24 08:59:00,62.7,46.3,29.92,WNW,293,1.0,3.0,55,0.00,,,0.00,Wunderground v.1.15,2013-08-24 15:59:00,
2013-08-24 09:05:00,62.5,45.1,29.92,NW,326,1.0,3.0,53,0.00,,,0.00,Wunderground v.1.15,2013-08-24 16:05:00,
2013-08-24 09:10:00,62.6,45.2,29.92,NNE,28,1.0,3.0,53,0.00,,,0.00,Wunderground v.1.15,2013-08-24 16:10:00,
2013-08-24 09:15:00,62.9,46.0,29.92,WNW,288,1.0,4.0,54,0.00,,,0.00,Wunderground v.1.15,2013-08-24 16:15:00,
2013-08-24 09:21:00,62.8,45.9,29.93,West,267,2.0,4.0,54,0.00,,,0.00,Wunderground v.1.15,2013-08-24 16:21:00,
2013-08-24 09:26:00,63.0,47.1,29.93,WNW,295,2.0,4.0,56,0.00,,,0.00,Wunderground v.1.15,2013-08-24 16:26:00,
2013-08-24 09:32:00,63.5,47.5,29.92,NW,323,1.0,3.0,56,0.00,,,0.00,Wunderground v.1.15,2013-08-24 16:32:00,
2013-08-24 09:37:00,64.0,47.0,29.93,NNE,28,1.0,3.0,54,0.00,,,0.00,Wunderground v.1.15,2013-08-24 16:37:00,
2013-08-24 09:42:00,61.2,46.0,29.71,WSW,240,0.0,3.0,57,0.00,,,0.00,weatherlink.com 1.10,2013-08-24 16:42:00,
2013-08-24 09:48:00,64.2,47.2,29.93,NW,319,2.0,3.0,54,0.00,,,0.00,Wunderground v.1.15,2013-08-24 16:48:00,
2013-08-24 09:53:00,64.5,47.5,29.92,SW,217,3.0,4.0,54,0.00,,,0.00,Wunderground v.1.15,2013-08-24 16:53:00,
2013-08-24 09:59:00,64.7,47.7,29.92,West,271,3.0,3.0,54,0.00,,,0.00,Wunderground v.1.15,2013-08-24 16:59:00,
2013-08-24 10:04:00,64.6,47.1,29.92,WNW,290,3.0,3.0,53,0.00,,,0.00,Wunderground v.1.15,2013-08-24 17:04:00,
2013-08-24 10:10:00,65.5,47.4,29.92,NW,324,2.0,3.0,52,0.00,,,0.00,Wunderground v.1.15,2013-08-24 17:10:00,
2013-08-24 10:15:00,65.3,47.2,29.92,West,269,2.0,5.0,52,0.00,,,0.00,Wunderground v.1.15,2013-08-24 17:15:00,
2013-08-24 10:21:00,65.9,47.8,29.92,West,268,2.0,3.0,52,0.00,,,0.00,Wunderground v.1.15,2013-08-24 17:21:00,
2013-08-24 10:26:00,66.0,47.3,29.92,South,190,1.0,3.0,51,0.00,,,0.00,Wunderground v.1.15,2013-08-24 17:26:00,
2013-08-24 10:31:00,66.8,47.6,29.92,West,262,2.0,4.0,50,0.00,,,0.00,Wunderground v.1.15,2013-08-24 17:31:00,
2013-08-24 10:37:00,66.8,47.6,29.92,WSW,257,2.0,4.0,50,0.00,,,0.00,Wunderground v.1.15,2013-08-24 17:37:00,
2013-08-24 10:42:00,64.8,47.0,29.70,WSW,253,0.0,3.0,52,0.00,,,0.00,weatherlink.com 1.10,2013-08-24 17:42:00,
2013-08-24 10:48:00,67.4,47.6,29.92,West,266,3.0,6.0,49,0.00,,,0.00,Wunderground v.1.15,2013-08-24 17:48:00,
2013-08-24 10:53:00,67.5,47.7,29.91,WSW,257,4.0,6.0,49,0.00,,,0.00,Wunderground v.1.15,2013-08-24 17:53:00,
2013-08-24 10:59:00,68.0,47.0,29.91,West,278,4.0,5.0,47,0.00,,,0.00,Wunderground v.1.15,2013-08-24 17:59:00,
2013-08-24 11:04:00,67.9,46.9,29.91,West,280,3.0,5.0,47,0.00,,,0.00,Wunderground v.1.15,2013-08-24 18:04:00,
2013-08-24 11:10:00,68.7,47.1,29.91,WNW,290,2.0,7.0,46,0.00,,,0.00,Wunderground v.1.15,2013-08-24 18:10:00,
2013-08-24 11:16:00,68.4,47.9,29.91,NNW,330,4.0,7.0,48,0.00,,,0.00,Wunderground v.1.15,2013-08-24 18:16:00,
2013-08-24 11:21:00,69.6,47.9,29.91,West,269,2.0,4.0,46,0.00,,,0.00,Wunderground v.1.15,2013-08-24 18:21:00,
2013-08-24 11:26:00,70.2,48.4,29.91,WNW,293,3.0,6.0,46,0.00,,,0.00,Wunderground v.1.15,2013-08-24 18:26:00,
2013-08-24 11:32:00,69.8,48.1,29.91,West,267,4.0,9.0,46,0.00,,,0.00,Wunderground v.1.15,2013-08-24 18:32:00,
2013-08-24 11:37:00,69.7,47.4,29.91,NW,318,5.0,9.0,45,0.00,,,0.00,Wunderground v.1.15,2013-08-24 18:37:00,
2013-08-24 11:42:00,68.4,47.0,29.69,West,281,4.0,6.0,47,0.00,,,0.00,weatherlink.com 1.10,2013-08-24 18:42:00,
2013-08-24 11:48:00,69.8,47.5,29.91,NNE,22,3.0,3.0,45,0.00,,,0.00,Wunderground v.1.15,2013-08-24 18:48:00,
2013-08-24 11:54:00,70.5,48.1,29.91,NW,307,4.0,6.0,45,0.00,,,0.00,Wunderground v.1.15,2013-08-24 18:54:00,
2013-08-24 11:59:00,70.6,48.2,29.91,North,354,5.0,6.0,45,0.00,,,0.00,Wunderground v.1.15,2013-08-24 18:59:00,
2013-08-24 12:04:00,71.3,47.6,29.90,NW,306,4.0,6.0,43,0.00,,,0.00,Wunderground v.1.15,2013-08-24 19:04:00,
2013-08-24 12:10:00,71.2,48.2,29.90,NNE,30,4.0,7.0,44,0.00,,,0.00,Wunderground v.1.15,2013-08-24 19:10:00,
2013-08-24 12:16:00,72.1,49.0,29.90,NW,308,5.0,8.0,44,0.00,,,0.00,Wunderground v.1.15,2013-08-24 19:16:00,
2013-08-24 12:21:00,72.0,48.3,29.90,NNE,19,5.0,6.0,43,0.00,,,0.00,Wunderground v.1.15,2013-08-24 19:21:00,
2013-08-24 12:27:00,71.6,48.5,29.90,WNW,296,5.0,9.0,44,0.00,,,0.00,Wunderground v.1.15,2013-08-24 19:27:00,
2013-08-24 12:32:00,71.9,48.8,29.90,NNW,346,5.0,5.0,44,0.00,,,0.00,Wunderground v.1.15,2013-08-24 19:32:00,
2013-08-24 12:37:00,72.2,48.5,29.89,NNW,329,5.0,8.0,43,0.00,,,0.00,Wunderground v.1.15,2013-08-24 19:37:00,
2013-08-24 12:43:00,71.2,48.0,29.67,WNW,293,2.0,5.0,44,0.00,,,0.00,weatherlink.com 1.10,2013-08-24 19:43:00,
2013-08-24 12:49:00,72.1,48.4,29.89,NNW,337,6.0,8.0,43,0.00,,,0.00,Wunderground v.1.15,2013-08-24 19:49:00,
2013-08-24 12:54:00,72.2,48.5,29.89,NNW,342,6.0,8.0,43,0.00,,,0.00,Wunderground v.1.15,2013-08-24 19:54:00,
2013-08-24 12:59:00,72.9,48.5,29.89,WNW,294,3.0,4.0,42,0.00,,,0.00,Wunderground v.1.15,2013-08-24 19:59:00,
2013-08-24 13:05:00,72.8,47.7,29.89,WSW,253,4.0,6.0,41,0.00,,,0.00,Wunderground v.1.15,2013-08-24 20:05:00,
2013-08-24 13:10:00,73.1,48.6,29.89,NW,307,4.0,4.0,42,0.00,,,0.00,Wunderground v.1.15,2013-08-24 20:10:00,
2013-08-24 13:16:00,73.9,48.1,29.89,WNW,303,5.0,9.0,40,0.00,,,0.00,Wunderground v.1.15,2013-08-24 20:16:00,
2013-08-24 13:21:00,74.1,46.9,29.89,North,349,7.0,8.0,38,0.00,,,0.00,Wunderground v.1.15,2013-08-24 20:21:00,
2013-08-24 13:26:00,74.1,47.6,29.89,West,278,7.0,12.0,39,0.00,,,0.00,Wunderground v.1.15,2013-08-24 20:26:00,
2013-08-24 13:31:00,74.0,47.5,29.89,WNW,288,7.0,9.0,39,0.00,,,0.00,Wunderground v.1.15,2013-08-24 20:31:00,
2013-08-24 13:37:00,73.7,47.2,29.89,West,267,6.0,9.0,39,0.00,,,0.00,Wunderground v.1.15,2013-08-24 20:37:00,
2013-08-24 13:42:00,73.5,47.0,29.89,North,356,6.0,7.0,39,0.00,,,0.00,Wunderground v.1.15,2013-08-24 20:42:00,
2013-08-24 13:48:00,73.9,47.4,29.89,NW,323,5.0,8.0,39,0.00,,,0.00,Wunderground v.1.15,2013-08-24 20:48:00,
2013-08-24 13:54:00,73.8,46.6,29.89,NNE,29,7.0,11.0,38,0.00,,,0.00,Wunderground v.1.15,2013-08-24 20:54:00,
2013-08-24 14:00:00,73.9,46.7,29.89,NW,321,8.0,10.0,38,0.00,,,0.00,Wunderground v.1.15,2013-08-24 21:00:00,
2013-08-24 14:05:00,73.9,46.7,29.88,NNW,338,7.0,10.0,38,0.00,,,0.00,Wunderground v.1.15,2013-08-24 21:05:00,
2013-08-24 14:10:00,74.9,46.9,29.88,West,281,7.0,8.0,37,0.00,,,0.00,Wunderground v.1.15,2013-08-24 21:10:00,
2013-08-24 14:16:00,74.9,46.9,29.89,NW,321,7.0,11.0,37,0.00,,,0.00,Wunderground v.1.15,2013-08-24 21:16:00,
2013-08-24 14:21:00,74.7,46.7,29.89,WNW,300,8.0,11.0,37,0.00,,,0.00,Wunderground v.1.15,2013-08-24 21:21:00,
2013-08-24 14:27:00,74.6,46.6,29.88,NW,315,7.0,11.0,37,0.00,,,0.00,Wunderground v.1.15,2013-08-24 21:27:00,
2013-08-24 14:32:00,74.0,46.1,29.88,NNW,332,8.0,10.0,37,0.00,,,0.00,Wunderground v.1.15,2013-08-24 21:32:00,
2013-08-24 14:38:00,73.6,45.7,29.88,NW,314,8.0,11.0,37,0.00,,,0.00,Wunderground v.1.15,2013-08-24 21:38:00,
2013-08-24 14:43:00,73.4,45.5,29.88,NNW,336,7.0,11.0,37,0.00,,,0.00,Wunderground v.1.15,2013-08-24 21:43:00,
2013-08-24 14:49:00,73.2,45.4,29.88,NW,326,7.0,7.0,37,0.00,,,0.00,Wunderground v.1.15,2013-08-24 21:49:00,
2013-08-24 14:54:00,72.9,45.1,29.88,North,357,6.0,7.0,37,0.00,,,0.00,Wunderground v.1.15,2013-08-24 21:54:00,
2013-08-24 14:59:00,72.6,44.1,29.88,NNW,345,6.0,12.0,36,0.00,,,0.00,Wunderground v.1.15,2013-08-24 21:59:00,
2013-08-24 15:05:00,72.4,44.6,29.88,NNW,336,6.0,12.0,37,0.00,,,0.00,Wunderground v.1.15,2013-08-24 22:05:00,
2013-08-24 15:10:00,72.6,43.4,29.88,NW,311,6.0,9.0,35,0.00,,,0.00,Wunderground v.1.15,2013-08-24 22:10:00,
2013-08-24 15:16:00,72.8,43.5,29.88,WNW,294,7.0,9.0,35,0.00,,,0.00,Wunderground v.1.15,2013-08-24 22:16:00,
2013-08-24 15:21:00,72.9,42.9,29.88,WNW,293,6.0,9.0,34,0.00,,,0.00,Wunderground v.1.15,2013-08-24 22:21:00,
2013-08-24 15:26:00,73.4,43.3,29.88,NW,323,7.0,9.0,34,0.00,,,0.00,Wunderground v.1.15,2013-08-24 22:26:00,
2013-08-24 15:32:00,73.8,42.9,29.87,NW,320,7.0,10.0,33,0.00,,,0.00,Wunderground v.1.15,2013-08-24 22:32:00,
2013-08-24 15:38:00,74.1,43.1,29.87,North,7,8.0,8.0,33,0.00,,,0.00,Wunderground v.1.15,2013-08-24 22:38:00,
2013-08-24 15:43:00,74.0,43.1,29.87,NW,311,8.0,10.0,33,0.00,,,0.00,Wunderground v.1.15,2013-08-24 22:43:00,
2013-08-24 15:48:00,74.2,43.2,29.87,North,1,6.0,6.0,33,0.00,,,0.00,Wunderground v.1.15,2013-08-24 22:48:00,
2013-08-24 15:53:00,74.6,43.6,29.87,NW,316,6.0,11.0,33,0.00,,,0.00,Wunderground v.1.15,2013-08-24 22:53:00,
2013-08-24 15:58:00,74.3,44.0,29.65,North,349,6.0,9.0,34,0.00,,,0.00,weatherlink.com 1.10,2013-08-24 22:58:00,
2013-08-24 16:04:00,74.5,44.3,29.87,NW,319,5.0,7.0,34,0.00,,,0.00,Wunderground v.1.15,2013-08-24 23:04:00,
2013-08-24 16:10:00,74.6,44.4,29.87,NNW,329,5.0,6.0,34,0.00,,,0.00,Wunderground v.1.15,2013-08-24 23:10:00,
2013-08-24 16:15:00,75.4,43.5,29.87,NNW,331,5.0,9.0,32,0.00,,,0.00,Wunderground v.1.15,2013-08-24 23:15:00,
2013-08-24 16:20:00,74.7,43.7,29.87,NW,322,6.0,6.0,33,0.00,,,0.00,Wunderground v.1.15,2013-08-24 23:20:00,
2013-08-24 16:26:00,74.4,44.2,29.87,NW,323,5.0,8.0,34,0.00,,,0.00,Wunderground v.1.15,2013-08-24 23:26:00,
2013-08-24 16:31:00,74.3,44.1,29.87,NNW,336,6.0,9.0,34,0.00,,,0.00,Wunderground v.1.15,2013-08-24 23:31:00,
2013-08-24 16:37:00,74.2,44.8,29.87,North,8,6.0,9.0,35,0.00,,,0.00,Wunderground v.1.15,2013-08-24 23:37:00,
2013-08-24 16:42:00,74.2,44.8,29.86,WNW,294,5.0,7.0,35,0.00,,,0.00,Wunderground v.1.15,2013-08-24 23:42:00,
2013-08-24 16:48:00,74.1,44.7,29.86,WNW,298,7.0,9.0,35,0.00,,,0.00,Wunderground v.1.15,2013-08-24 23:48:00,
2013-08-24 16:54:00,74.0,44.6,29.86,NW,308,8.0,9.0,35,0.00,,,0.00,Wunderground v.1.15,2013-08-24 23:54:00,
2013-08-24 16:59:00,73.8,44.4,29.86,East,89,6.0,7.0,35,0.00,,,0.00,Wunderground v.1.15,2013-08-24 23:59:00,
2013-08-24 17:05:00,73.5,44.9,29.86,NW,320,6.0,10.0,36,0.00,,,0.00,Wunderground v.1.15,2013-08-25 00:05:00,
2013-08-24 17:10:00,73.9,44.5,29.86,WNW,301,8.0,9.0,35,0.00,,,0.00,Wunderground v.1.15,2013-08-25 00:10:00,
2013-08-24 17:16:00,74.2,44.8,29.87,WNW,291,8.0,9.0,35,0.00,,,0.00,Wunderground v.1.15,2013-08-25 00:16:00,
2013-08-24 17:21:00,73.6,45.0,29.87,NNE,13,7.0,8.0,36,0.00,,,0.00,Wunderground v.1.15,2013-08-25 00:21:00,
2013-08-24 17:26:00,73.5,44.2,29.87,WNW,300,6.0,8.0,35,0.00,,,0.00,Wunderground v.1.15,2013-08-25 00:26:00,
2013-08-24 17:32:00,73.0,44.5,29.87,NW,323,6.0,7.0,36,0.00,,,0.00,Wunderground v.1.15,2013-08-25 00:32:00,
2013-08-24 17:38:00,72.5,44.7,29.88,NW,319,5.0,5.0,37,0.00,,,0.00,Wunderground v.1.15,2013-08-25 00:38:00,
2013-08-24 17:43:00,72.3,44.6,29.89,SSW,203,3.0,5.0,37,0.00,,,0.00,Wunderground v.1.15,2013-08-25 00:43:00,
2013-08-24 17:48:00,70.7,47.1,29.90,ESE,108,4.0,8.0,43,0.00,,,0.00,Wunderground v.1.15,2013-08-25 00:48:00,
2013-08-24 17:53:00,65.2,51.0,29.90,SE,125,12.0,22.0,60,0.81,,,0.02,Wunderground v.1.15,2013-08-25 00:53:00,
2013-08-24 17:58:00,60.0,52.0,29.68,NNE,30,2.0,11.0,75,0.12,,,0.12,weatherlink.com 1.10,2013-08-25 00:58:00,
2013-08-24 18:04:00,61.1,50.8,29.90,SE,129,12.0,17.0,69,0.17,,,0.09,Wunderground v.1.15,2013-08-25 01:04:00,
2013-08-24 18:09:00,61.0,50.4,29.90,ENE,58,6.0,7.0,68,0.07,,,0.09,Wunderground v.1.15,2013-08-25 01:09:00,
2013-08-24 18:14:00,60.1,52.1,29.90,NE,55,6.0,7.0,75,0.05,,,0.10,Wunderground v.1.15,2013-08-25 01:14:00,
2013-08-24 18:20:00,59.3,53.5,29.89,NE,53,6.0,11.0,81,0.05,,,0.10,Wunderground v.1.15,2013-08-25 01:20:00,
2013-08-24 18:25:00,59.0,53.8,29.88,NNE,32,8.0,11.0,83,0.05,,,0.10,Wunderground v.1.15,2013-08-25 01:25:00,
2013-08-24 18:31:00,59.2,54.0,29.90,WNW,298,7.0,8.0,83,0.00,,,0.10,Wunderground v.1.15,2013-08-25 01:31:00,
2013-08-24 18:37:00,59.6,54.4,29.90,NW,322,5.0,8.0,83,0.00,,,0.10,Wunderground v.1.15,2013-08-25 01:37:00,
2013-08-24 18:42:00,59.5,54.3,29.90,NW,305,6.0,9.0,83,0.00,,,0.10,Wunderground v.1.15,2013-08-25 01:42:00,
2013-08-24 18:48:00,59.0,54.2,29.90,NW,304,6.0,6.0,84,0.00,,,0.10,Wunderground v.1.15,2013-08-25 01:48:00,
2013-08-24 18:53:00,59.1,53.6,29.90,WNW,290,6.0,7.0,82,0.00,,,0.10,Wunderground v.1.15,2013-08-25 01:53:00,
2013-08-24 18:58:00,56.8,54.0,29.69,NNW,329,0.0,5.0,89,0.03,,,0.15,weatherlink.com 1.10,2013-08-25 01:58:00,
2013-08-24 19:04:00,58.6,54.1,29.91,WNW,303,6.0,8.0,85,0.00,,,0.10,Wunderground v.1.15,2013-08-25 02:04:00,
2013-08-24 19:10:00,58.3,53.8,29.91,NNW,330,6.0,6.0,85,0.00,,,0.10,Wunderground v.1.15,2013-08-25 02:10:00,
2013-08-24 19:16:00,58.1,53.9,29.92,NW,322,6.0,7.0,86,0.00,,,0.10,Wunderground v.1.15,2013-08-25 02:16:00,
2013-08-24 19:21:00,58.2,54.3,29.92,NW,323,6.0,7.0,87,0.00,,,0.10,Wunderground v.1.15,2013-08-25 02:21:00,
2013-08-24 19:26:00,58.2,54.7,29.92,NNW,332,6.0,7.0,88,0.00,,,0.10,Wunderground v.1.15,2013-08-25 02:26:00,
2013-08-24 19:32:00,57.8,54.0,29.92,NNE,14,6.0,8.0,87,0.00,,,0.10,Wunderground v.1.15,2013-08-25 02:32:00,
2013-08-24 19:37:00,57.7,54.2,29.92,NE,34,7.0,8.0,88,0.00,,,0.10,Wunderground v.1.15,2013-08-25 02:37:00,
2013-08-24 19:43:00,57.8,54.3,29.93,NE,51,8.0,11.0,88,0.00,,,0.10,Wunderground v.1.15,2013-08-25 02:43:00,
2013-08-24 19:48:00,58.0,53.5,29.93,NE,46,9.0,9.0,85,0.00,,,0.10,Wunderground v.1.15,2013-08-25 02:48:00,
2013-08-24 19:53:00,58.0,53.2,29.93,NNE,15,8.0,10.0,84,0.00,,,0.10,Wunderground v.1.15,2013-08-25 02:53:00,
2013-08-24 19:58:00,58.0,53.2,29.94,NNE,14,6.0,6.0,84,0.00,,,0.10,Wunderground v.1.15,2013-08-25 02:58:00,
2013-08-24 20:04:00,57.8,53.0,29.94,NE,36,5.0,6.0,84,0.00,,,0.10,Wunderground v.1.15,2013-08-25 03:04:00,
2013-08-24 20:09:00,57.7,53.2,29.94,East,82,4.0,4.0,85,0.00,,,0.10,Wunderground v.1.15,2013-08-25 03:09:00,
2013-08-24 20:14:00,57.7,53.5,29.94,NE,56,4.0,6.0,86,0.00,,,0.10,Wunderground v.1.15,2013-08-25 03:14:00,
2013-08-24 20:19:00,57.7,53.2,29.95,ENE,72,4.0,4.0,85,0.00,,,0.10,Wunderground v.1.15,2013-08-25 03:19:00,
2013-08-24 20:25:00,57.8,53.3,29.95,East,84,4.0,5.0,85,0.00,,,0.10,Wunderground v.1.15,2013-08-25 03:25:00,
2013-08-24 20:30:00,58.0,53.2,29.95,NE,56,5.0,7.0,84,0.00,,,0.10,Wunderground v.1.15,2013-08-25 03:30:00,
2013-08-24 20:36:00,58.2,53.4,29.96,East,95,5.0,7.0,84,0.00,,,0.11,Wunderground v.1.15,2013-08-25 03:36:00,
2013-08-24 20:42:00,58.1,53.6,29.97,ESE,109,3.0,4.0,85,0.00,,,0.11,Wunderground v.1.15,2013-08-25 03:42:00,
2013-08-24 20:47:00,58.0,53.5,29.96,East,83,3.0,4.0,85,0.00,,,0.11,Wunderground v.1.15,2013-08-25 03:47:00,
2013-08-24 20:53:00,57.9,54.1,29.96,ESE,120,3.0,6.0,87,0.00,,,0.12,Wunderground v.1.15,2013-08-25 03:53:00,
2013-08-24 20:58:00,57.8,54.0,29.95,ENE,60,3.0,4.0,87,0.00,,,0.12,Wunderground v.1.15,2013-08-25 03:58:00,
2013-08-24 21:01:00,57.7,53.5,29.96,ENE,64,4.0,6.0,86,0.00,,,0.12,Wunderground v.1.15,2013-08-25 04:01:00,
2013-08-24 21:02:00,57.7,53.9,29.96,ENE,65,4.0,6.0,87,0.00,,,0.12,Wunderground v.1.15,2013-08-25 04:02:00,
2013-08-24 21:05:00,57.6,54.1,29.96,ENE,65,4.0,6.0,88,0.00,,,0.12,Wunderground v.1.15,2013-08-25 04:05:00,
2013-08-24 21:08:00,57.4,53.9,29.96,East,90,4.0,4.0,88,0.00,,,0.12,Wunderground v.1.15,2013-08-25 04:08:00,
2013-08-24 21:13:00,56.0,53.0,29.75,ESE,115,0.0,1.0,89,0.02,,,0.17,weatherlink.com 1.10,2013-08-25 04:13:00,
2013-08-24 21:19:00,57.5,53.7,29.94,NE,44,2.0,7.0,87,0.00,,,0.12,Wunderground v.1.15,2013-08-25 04:19:00,
2013-08-24 21:25:00,57.2,53.7,29.92,NNE,33,6.0,12.0,88,0.00,,,0.13,Wunderground v.1.15,2013-08-25 04:25:00,
2013-08-24 21:30:00,57.4,53.6,29.93,ENE,65,9.0,9.0,87,0.00,,,0.13,Wunderground v.1.15,2013-08-25 04:30:00,
2013-08-24 21:35:00,57.3,53.5,29.93,ENE,72,8.0,9.0,87,0.00,,,0.13,Wunderground v.1.15,2013-08-25 04:35:00,
2013-08-24 21:41:00,57.3,53.1,29.94,East,81,4.0,7.0,86,0.00,,,0.13,Wunderground v.1.15,2013-08-25 04:41:00,
2013-08-24 21:46:00,57.2,53.0,29.94,ENE,78,1.0,7.0,86,0.00,,,0.13,Wunderground v.1.15,2013-08-25 04:46:00,
2013-08-24 21:52:00,57.1,53.3,29.94,WNW,295,1.0,3.0,87,0.00,,,0.13,Wunderground v.1.15,2013-08-25 04:52:00,
2013-08-24 21:57:00,56.8,53.3,29.94,WNW,291,2.0,4.0,88,0.00,,,0.13,Wunderground v.1.15,2013-08-25 04:57:00,
2013-08-24 22:02:00,56.7,53.2,29.94,NW,321,3.0,4.0,88,0.00,,,0.13,Wunderground v.1.15,2013-08-25 05:02:00,
2013-08-24 22:08:00,56.8,53.6,29.94,West,276,2.0,2.0,89,0.00,,,0.13,Wunderground v.1.15,2013-08-25 05:08:00,
2013-08-24 22:13:00,56.8,53.6,29.95,West,276,1.0,3.0,89,0.00,,,0.13,Wunderground v.1.15,2013-08-25 05:13:00,
2013-08-24 22:19:00,56.7,53.5,29.95,West,276,0.0,3.0,89,0.00,,,0.13,Wunderground v.1.15,2013-08-25 05:19:00,
2013-08-24 22:24:00,56.6,53.4,29.95,West,280,0.0,3.0,89,0.00,,,0.13,Wunderground v.1.15,2013-08-25 05:24:00,
2013-08-24 22:30:00,56.4,53.5,29.95,West,280,0.0,3.0,90,0.00,,,0.13,Wunderground v.1.15,2013-08-25 05:30:00,
2013-08-24 22:35:00,56.1,53.2,29.95,SSW,198,0.0,3.0,90,0.00,,,0.13,Wunderground v.1.15,2013-08-25 05:35:00,
2013-08-24 22:41:00,56.3,53.4,29.95,SSW,203,1.0,3.0,90,0.00,,,0.13,Wunderground v.1.15,2013-08-25 05:41:00,
2013-08-24 22:46:00,56.4,53.2,29.95,SSW,203,0.0,3.0,89,0.00,,,0.13,Wunderground v.1.15,2013-08-25 05:46:00,
2013-08-24 22:51:00,56.3,53.1,29.95,SW,227,0.0,3.0,89,0.00,,,0.13,Wunderground v.1.15,2013-08-25 05:51:00,
2013-08-24 22:57:00,55.9,53.0,29.96,South,191,0.0,3.0,90,0.00,,,0.13,Wunderground v.1.15,2013-08-25 05:57:00,
2013-08-24 23:02:00,55.7,52.8,29.96,SW,222,0.0,3.0,90,0.00,,,0.13,Wunderground v.1.15,2013-08-25 06:02:00,
2013-08-24 23:07:00,55.6,52.7,29.95,SSW,210,1.0,3.0,90,0.00,,,0.13,Wunderground v.1.15,2013-08-25 06:07:00,
2013-08-24 23:12:00,55.5,52.9,29.95,East,101,1.0,3.0,91,0.00,,,0.13,Wunderground v.1.15,2013-08-25 06:12:00,
2013-08-24 23:18:00,55.4,52.8,29.96,SSE,148,1.0,3.0,91,0.00,,,0.13,Wunderground v.1.15,2013-08-25 06:18:00,
2013-08-24 23:24:00,55.4,52.8,29.96,SSW,204,2.0,3.0,91,0.00,,,0.13,Wunderground v.1.15,2013-08-25 06:24:00,
2013-08-24 23:29:00,55.2,52.6,29.95,SSW,207,1.0,3.0,91,0.00,,,0.13,Wunderground v.1.15,2013-08-25 06:29:00,
2013-08-24 23:34:00,55.2,52.9,29.96,SSW,207,0.0,3.0,92,0.00,,,0.13,Wunderground v.1.15,2013-08-25 06:34:00,
2013-08-24 23:40:00,55.2,52.9,29.96,SE,124,0.0,3.0,92,0.00,,,0.13,Wunderground v.1.15,2013-08-25 06:40:00,
2013-08-24 23:45:00,55.2,52.9,29.96,SE,131,1.0,3.0,92,0.00,,,0.13,Wunderground v.1.15,2013-08-25 06:45:00,
2013-08-24 23:50:00,55.3,53.0,29.95,ENE,62,1.0,3.0,92,0.00,,,0.13,Wunderground v.1.15,2013-08-25 06:50:00,
2013-08-24 23:56:00,55.3,53.0,29.95,ENE,69,2.0,3.0,92,0.00,,,0.13,Wunderground v.1.15,2013-08-25 06:56:00,